createdAt,value
2023-02-24T00:02:06.346Z,7.13
2023-02-24T00:04:40.896Z,5.53
2023-02-24T00:07:10.860Z,6.70
2023-02-24T00:09:40.267Z,6.40
2023-02-24T00:12:13.376Z,6.70
2023-02-24T00:14:44.757Z,4.68
2023-02-24T00:17:16.423Z,5.80
2023-02-24T00:19:44.514Z,5.63
2023-02-24T00:22:12.992Z,6.35
2023-02-24T00:24:40.941Z,7.47
2023-02-24T00:27:11.955Z,5.32
2023-02-24T00:29:42.321Z,5.72
2023-02-24T00:32:13.520Z,6.05
2023-02-24T00:34:45.408Z,5.57
2023-02-24T00:37:15.557Z,5.30
2023-02-24T00:39:45.765Z,6.07
2023-02-24T00:42:15.054Z,5.32
2023-02-24T00:44:47.261Z,7.43
2023-02-24T00:47:18.233Z,4.57
2023-02-24T00:49:46.634Z,5.30
2023-02-24T00:52:19.402Z,5.47
2023-02-24T00:54:49.434Z,7.40
2023-02-24T00:57:18.800Z,4.15
2023-02-24T00:59:47.911Z,4.30
2023-02-24T01:02:16.383Z,7.70
2023-02-24T01:04:46.219Z,4.30
2023-02-24T01:07:14.954Z,3.95
2023-02-24T01:09:44.448Z,4.75
2023-02-24T01:12:42.961Z,4.50
2023-02-24T01:15:11.702Z,4.53
2023-02-24T01:17:40.877Z,4.65
2023-02-24T01:20:19.205Z,4.38
2023-02-24T01:22:53.505Z,5.97
2023-02-24T01:25:21.868Z,5.72
2023-02-24T01:27:49.701Z,4.13
2023-02-24T01:30:18.663Z,4.72
2023-02-24T01:32:47.719Z,8.50
2023-02-24T01:37:45.713Z,5.20
2023-02-24T01:40:18.959Z,3.97
2023-02-24T01:42:47.969Z,3.58
2023-02-24T01:45:22.016Z,3.47
2023-02-24T01:47:53.249Z,4.68
2023-02-24T01:50:23.816Z,3.58
2023-02-24T01:52:59.318Z,4.03
2023-02-24T01:55:32.613Z,3.80
2023-02-24T01:58:05.172Z,4.13
2023-02-24T02:00:38.153Z,3.50
2023-02-24T02:03:11.982Z,4.35
2023-02-24T02:05:41.036Z,5.28
2023-02-24T02:10:41.454Z,4.18
2023-02-24T02:13:10.402Z,4.55
2023-02-24T02:15:47.449Z,4.70
2023-02-24T02:18:44.706Z,6.50
2023-02-24T02:21:32.832Z,4.30
2023-02-24T02:24:21.240Z,4.70
2023-02-24T02:27:10.790Z,5.90
2023-02-24T02:29:59.576Z,4.35
2023-02-24T02:32:39.529Z,6.60
2023-02-24T02:35:26.568Z,6.55
2023-02-24T02:38:05.765Z,4.47
2023-02-24T02:40:41.249Z,3.70
2023-02-24T02:43:26.136Z,4.00
2023-02-24T02:46:15.307Z,4.03
2023-02-24T02:48:58.487Z,3.85
2023-02-24T02:51:38.950Z,4.25
2023-02-24T02:54:17.137Z,3.90
2023-02-24T02:57:55.358Z,6.38
2023-02-24T03:00:29.613Z,7.93
2023-02-24T03:03:04.161Z,6.32
2023-02-24T03:05:46.725Z,7.10
2023-02-24T03:08:19.375Z,5.43
2023-02-24T03:10:51.920Z,5.05
2023-02-24T03:13:30.531Z,5.90
2023-02-24T03:16:02.657Z,10.48
2023-02-24T03:18:35.603Z,3.97
2023-02-24T03:21:08.130Z,6.75
2023-02-24T03:23:40.923Z,6.53
2023-02-24T03:26:30.520Z,2.83
2023-02-24T03:29:36.904Z,5.05
2023-02-24T03:32:12.762Z,6.25
2023-02-24T03:34:52.479Z,9.20
2023-02-24T03:37:25.986Z,6.90
2023-02-24T03:39:57.443Z,5.78
2023-02-24T03:42:31.283Z,5.88
2023-02-24T03:44:59.407Z,6.55
2023-02-24T03:47:27.772Z,7.85
2023-02-24T03:49:55.715Z,4.95
2023-02-24T03:52:49.735Z,5.63
2023-02-24T03:55:54.943Z,4.32
2023-02-24T03:59:00.029Z,5.80
2023-02-24T04:01:58.201Z,2.55
2023-02-24T04:04:46.039Z,4.82
2023-02-24T04:07:26.637Z,4.68
2023-02-24T04:10:15.499Z,5.35
2023-02-24T04:12:52.526Z,6.30
2023-02-24T04:15:29.750Z,8.77
2023-02-24T04:18:15.183Z,7.18
2023-02-24T04:20:49.610Z,4.85
2023-02-24T04:23:22.675Z,5.78
2023-02-24T04:25:53.555Z,6.13
2023-02-24T04:28:25.738Z,7.25
2023-02-24T04:31:10.387Z,9.60
2023-02-24T04:33:40.527Z,6.70
2023-02-24T04:36:13.086Z,4.72
2023-02-24T04:38:42.606Z,5.60
2023-02-24T04:41:10.788Z,7.00
2023-02-24T04:43:38.652Z,5.88
2023-02-24T04:46:08.342Z,4.88
2023-02-24T04:48:36.462Z,7.55
2023-02-24T04:51:06.815Z,5.78
2023-02-24T04:53:34.867Z,8.90
2023-02-24T04:56:09.204Z,3.88
2023-02-24T04:58:38.932Z,7.72
2023-02-24T05:01:11.167Z,8.63
2023-02-24T05:03:42.636Z,7.63
2023-02-24T05:06:18.063Z,6.03
2023-02-24T05:08:46.171Z,6.65
2023-02-24T05:11:21.757Z,5.00
2023-02-24T05:13:50.033Z,5.20
2023-02-24T05:16:20.605Z,4.95
2023-02-24T05:18:48.765Z,7.65
2023-02-24T05:21:35.958Z,5.15
2023-02-24T05:24:07.440Z,4.70
2023-02-24T05:26:38.016Z,5.10
2023-02-24T05:29:07.255Z,6.88
2023-02-24T05:34:06.444Z,4.60
2023-02-24T05:36:40.873Z,4.85
2023-02-24T05:39:12.900Z,7.63
2023-02-24T05:41:43.410Z,7.95
2023-02-24T05:44:16.062Z,3.88
2023-02-24T05:46:46.871Z,5.18
2023-02-24T05:49:24.218Z,6.53
2023-02-24T05:51:57.309Z,9.10
2023-02-24T05:54:32.389Z,5.18
2023-02-24T05:57:12.085Z,4.82
2023-02-24T05:59:44.885Z,6.00
2023-02-24T06:02:15.180Z,7.07
2023-02-24T06:04:51.575Z,6.43
2023-02-24T06:07:34.573Z,6.80
2023-02-24T06:10:05.020Z,9.00
2023-02-24T06:12:34.532Z,10.02
2023-02-24T06:15:08.054Z,13.13
2023-02-24T06:17:36.232Z,15.15
2023-02-24T06:20:14.692Z,13.85
2023-02-24T06:22:42.796Z,14.27
2023-02-24T06:25:14.344Z,18.38
2023-02-24T06:27:43.302Z,16.45
2023-02-24T06:30:12.072Z,18.75
2023-02-24T06:32:40.375Z,11.57
2023-02-24T06:35:09.700Z,13.48
2023-02-24T06:37:37.580Z,11.48
2023-02-24T06:40:16.131Z,11.48
2023-02-24T06:42:46.651Z,3.97
2023-02-24T06:45:15.620Z,5.22
2023-02-24T06:50:12.570Z,6.80
2023-02-24T06:55:25.863Z,6.63
2023-02-24T06:57:59.674Z,5.40
2023-02-24T07:00:37.421Z,5.78
2023-02-24T07:03:17.377Z,5.95
2023-02-24T07:05:51.006Z,5.18
2023-02-24T07:08:23.086Z,6.28
2023-02-24T07:10:56.171Z,5.72
2023-02-24T07:13:26.084Z,7.28
2023-02-24T07:15:55.059Z,6.80
2023-02-24T07:18:26.842Z,5.63
2023-02-24T07:20:54.848Z,7.43
2023-02-24T07:23:22.723Z,8.00
2023-02-24T07:25:50.593Z,5.80
2023-02-24T07:28:19.432Z,7.57
2023-02-24T07:30:47.370Z,4.65
2023-02-24T07:33:15.398Z,6.22
2023-02-24T07:35:43.717Z,9.68
2023-02-24T07:38:14.602Z,7.25
2023-02-24T07:40:42.478Z,6.28
2023-02-24T07:43:11.302Z,6.28
2023-02-24T07:45:39.708Z,5.47
2023-02-24T07:48:08.095Z,6.28
2023-02-24T07:50:36.028Z,5.75
2023-02-24T07:53:05.725Z,6.18
2023-02-24T07:55:36.363Z,6.00
2023-02-24T07:58:06.169Z,9.13
2023-02-24T08:00:51.144Z,7.15
2023-02-24T08:03:19.260Z,8.93
2023-02-24T08:05:47.178Z,6.88
2023-02-24T08:08:21.217Z,5.30
2023-02-24T08:10:49.272Z,5.78
2023-02-24T08:13:19.424Z,5.57
2023-02-24T08:15:56.850Z,6.65
2023-02-24T08:18:24.873Z,6.75
2023-02-24T08:20:52.947Z,6.18
2023-02-24T08:23:23.725Z,6.50
2023-02-24T08:25:51.998Z,5.53
2023-02-24T08:28:20.154Z,7.25
2023-02-24T08:30:48.093Z,6.00
2023-02-24T08:33:24.493Z,6.55
2023-02-24T08:36:01.751Z,6.68
2023-02-24T08:38:44.966Z,6.20
2023-02-24T08:41:21.683Z,6.60
2023-02-24T08:43:50.024Z,7.88
2023-02-24T08:46:26.922Z,6.38
2023-02-24T08:49:01.015Z,8.95
2023-02-24T08:51:37.340Z,7.72
2023-02-24T08:54:15.677Z,6.47
2023-02-24T08:56:49.428Z,6.70
2023-02-24T08:59:37.339Z,8.05
2023-02-24T09:02:17.825Z,6.45
2023-02-24T09:04:47.784Z,7.90
2023-02-24T09:07:18.885Z,5.50
2023-02-24T09:09:47.797Z,6.45
2023-02-24T09:12:24.852Z,7.10
2023-02-24T09:14:56.232Z,5.30
2023-02-24T09:17:45.682Z,3.85
2023-02-24T09:20:27.546Z,5.60
2023-02-24T09:23:18.320Z,5.32
2023-02-24T09:25:51.007Z,8.00
2023-02-24T09:28:27.659Z,4.20
2023-02-24T09:31:00.002Z,6.55
2023-02-24T09:33:39.911Z,6.25
2023-02-24T09:36:28.449Z,5.85
2023-02-24T09:39:00.697Z,6.25
2023-02-24T09:42:18.491Z,4.38
2023-02-24T09:44:53.052Z,7.50
2023-02-24T09:47:40.499Z,7.45
2023-02-24T09:50:59.120Z,4.97
2023-02-24T09:53:18.987Z,5.68
2023-02-24T09:56:00.551Z,6.57
2023-02-24T09:58:48.108Z,6.43
2023-02-24T10:01:23.215Z,6.75
2023-02-24T10:06:35.440Z,5.03
2023-02-24T10:09:14.102Z,7.25
2023-02-24T10:11:53.931Z,8.57
2023-02-24T10:14:53.226Z,8.07
2023-02-24T10:20:29.408Z,6.53
2023-02-24T10:23:11.354Z,5.35
2023-02-24T10:25:54.307Z,7.15
2023-02-24T10:28:37.990Z,7.28
2023-02-24T10:31:26.754Z,5.50
2023-02-24T10:34:01.240Z,6.82
2023-02-24T10:36:35.883Z,5.97
2023-02-24T10:39:25.866Z,5.95
2023-02-24T10:42:17.971Z,8.15
2023-02-24T10:45:02.346Z,6.50
2023-02-24T10:47:31.858Z,7.18
2023-02-24T10:57:18.797Z,5.47
2023-02-24T11:00:16.891Z,9.27
2023-02-24T11:03:07.280Z,8.25
2023-02-24T11:06:05.921Z,9.65
2023-02-24T11:08:40.052Z,8.57
2023-02-24T11:11:26.088Z,8.77
2023-02-24T11:14:15.183Z,8.38
2023-02-24T11:17:13.942Z,10.85
2023-02-24T11:19:47.587Z,8.63
2023-02-24T11:22:20.685Z,10.15
2023-02-24T11:24:50.380Z,16.90
2023-02-24T11:27:26.761Z,8.77
2023-02-24T11:30:25.289Z,11.18
2023-02-24T11:33:05.077Z,13.57
2023-02-24T11:35:43.544Z,15.18
2023-02-24T11:38:29.162Z,8.48
2023-02-24T11:41:05.594Z,11.85
2023-02-24T11:43:37.297Z,12.93
2023-02-24T11:46:17.909Z,10.43
2023-02-24T11:48:57.292Z,12.80
2023-02-24T11:51:30.414Z,12.98
2023-02-24T11:54:12.096Z,9.43
2023-02-24T11:56:44.248Z,10.15
2023-02-24T11:59:33.708Z,7.63
2023-02-24T12:02:47.346Z,11.30
2023-02-24T12:05:19.204Z,9.60
2023-02-24T12:07:56.633Z,8.00
2023-02-24T12:10:36.161Z,8.25
2023-02-24T12:13:39.056Z,8.80
2023-02-24T12:16:15.362Z,9.07
2023-02-24T12:18:50.723Z,6.90
2023-02-24T12:21:30.906Z,8.38
2023-02-24T12:23:59.496Z,10.23
2023-02-24T12:26:48.344Z,9.00
2023-02-24T12:29:42.735Z,8.70
2023-02-24T12:32:21.233Z,7.00
2023-02-24T12:35:11.388Z,8.35
2023-02-24T12:38:06.638Z,11.70
2023-02-24T12:41:04.165Z,8.32
2023-02-24T12:43:50.638Z,7.28
2023-02-24T12:46:38.850Z,8.40
2023-02-24T12:49:33.808Z,7.22
2023-02-24T12:52:25.079Z,7.18
2023-02-24T12:55:02.868Z,40.45
2023-02-24T12:57:40.598Z,17.55
2023-02-24T13:00:18.180Z,9.73
2023-02-24T13:03:06.460Z,5.32
2023-02-24T13:05:48.769Z,8.07
2023-02-24T13:08:28.855Z,7.57
2023-02-24T13:11:06.760Z,8.50
2023-02-24T13:13:45.110Z,7.72
2023-02-24T13:16:13.504Z,6.40
2023-02-24T13:18:41.737Z,6.25
2023-02-24T13:21:15.627Z,7.68
2023-02-24T13:23:57.447Z,7.97
2023-02-24T13:26:28.241Z,7.47
2023-02-24T13:29:15.690Z,7.25
2023-02-24T13:31:51.739Z,8.07
2023-02-24T13:34:30.954Z,8.88
2023-02-24T13:36:59.545Z,9.32
2023-02-24T13:42:21.088Z,9.85
2023-02-24T13:45:13.466Z,10.32
2023-02-24T13:47:54.765Z,11.43
2023-02-24T13:50:33.161Z,8.95
2023-02-24T13:53:29.907Z,6.50
2023-02-24T13:56:34.510Z,9.07
2023-02-24T13:59:21.055Z,19.52
2023-02-24T14:02:01.660Z,17.27
2023-02-24T14:04:35.339Z,9.55
2023-02-24T14:07:09.797Z,9.27
2023-02-24T14:09:46.110Z,8.00
2023-02-24T14:12:25.449Z,9.55
2023-02-24T14:14:54.587Z,11.20
2023-02-24T14:17:32.835Z,9.90
2023-02-24T14:20:09.922Z,17.35
2023-02-24T14:22:55.538Z,7.43
2023-02-24T14:25:24.172Z,11.68
2023-02-24T14:27:55.068Z,7.20
2023-02-24T14:30:28.141Z,12.00
2023-02-24T14:32:56.673Z,13.68
2023-02-24T14:35:31.800Z,20.30
2023-02-24T14:38:02.167Z,17.02
2023-02-24T14:40:30.715Z,11.80
2023-02-24T14:42:58.799Z,14.30
2023-02-24T14:45:28.966Z,11.25
2023-02-24T14:47:57.649Z,9.43
2023-02-24T14:50:33.600Z,8.05
2023-02-24T14:53:12.433Z,14.75
2023-02-24T14:55:43.265Z,8.73
2023-02-24T14:58:28.595Z,7.03
2023-02-24T15:01:04.013Z,6.07
2023-02-24T15:03:46.674Z,6.40
2023-02-24T15:06:41.037Z,10.75
2023-02-24T15:09:19.244Z,18.95
2023-02-24T15:11:48.521Z,12.38
2023-02-24T15:14:31.255Z,30.83
2023-02-24T15:17:04.221Z,14.68
2023-02-24T15:19:44.551Z,16.50
2023-02-24T15:22:33.958Z,41.38
2023-02-24T15:25:22.353Z,77.25
2023-02-24T15:27:57.649Z,30.30
2023-02-24T15:30:33.557Z,27.85
2023-02-24T15:33:17.840Z,14.27
2023-02-24T15:35:58.703Z,54.58
2023-02-24T15:38:36.757Z,23.88
2023-02-24T15:41:06.887Z,18.25
2023-02-24T15:43:48.656Z,12.82
2023-02-24T15:46:19.331Z,16.30
2023-02-24T15:48:50.685Z,13.50
2023-02-24T15:51:29.611Z,13.65
2023-02-24T15:54:01.094Z,15.85
2023-02-24T15:56:33.226Z,20.48
2023-02-24T15:59:02.961Z,14.52
2023-02-24T16:01:31.807Z,12.57
2023-02-24T16:04:01.037Z,13.48
2023-02-24T16:06:29.657Z,18.55
2023-02-24T16:08:58.520Z,27.40
2023-02-24T16:11:29.626Z,71.45
2023-02-24T16:14:00.221Z,52.03
2023-02-24T16:16:29.069Z,42.15
2023-02-24T16:18:57.762Z,24.95
2023-02-24T16:21:26.186Z,20.73
2023-02-24T16:23:54.887Z,28.30
2023-02-24T16:28:58.206Z,33.72
2023-02-24T16:31:27.864Z,31.70
2023-02-24T16:33:56.479Z,27.17
2023-02-24T16:36:25.936Z,31.38
2023-02-24T16:38:54.292Z,41.70
2023-02-24T16:41:23.692Z,25.80
2023-02-24T16:43:52.349Z,32.10
2023-02-24T16:46:23.620Z,31.15
2023-02-24T16:48:53.755Z,20.42
2023-02-24T16:51:22.377Z,26.48
2023-02-24T16:53:50.654Z,21.15
2023-02-24T16:56:19.270Z,15.43
2023-02-24T16:58:47.639Z,16.40
2023-02-24T17:01:21.072Z,15.40
2023-02-24T17:03:51.528Z,15.70
2023-02-24T17:06:22.534Z,38.00
2023-02-24T17:08:52.016Z,26.45
2023-02-24T17:11:22.319Z,25.63
2023-02-24T17:13:50.858Z,32.22
2023-02-24T17:16:19.449Z,30.92
2023-02-24T17:18:48.077Z,30.27
2023-02-24T17:21:17.209Z,31.33
2023-02-24T17:23:46.175Z,47.15
2023-02-24T17:28:44.262Z,23.33
2023-02-24T17:31:12.818Z,39.13
2023-02-24T17:33:42.051Z,56.97
2023-02-24T17:36:10.958Z,40.85
2023-02-24T17:41:07.473Z,23.38
2023-02-24T17:43:36.095Z,24.92
2023-02-24T17:46:06.940Z,28.17
2023-02-24T17:48:36.092Z,95.65
2023-02-24T17:51:04.456Z,32.92
2023-02-24T17:53:33.084Z,27.40
2023-02-24T17:56:06.427Z,22.73
2023-02-24T17:58:35.263Z,29.33
2023-02-24T18:01:06.611Z,18.67
2023-02-24T18:03:36.714Z,19.73
2023-02-24T18:06:13.338Z,14.93
2023-02-24T18:08:41.833Z,23.17
2023-02-24T18:11:16.404Z,19.13
2023-02-24T18:13:45.302Z,50.22
2023-02-24T18:16:16.809Z,19.80
2023-02-24T18:18:45.484Z,30.02
2023-02-24T18:21:13.922Z,44.28
2023-02-24T18:23:42.373Z,43.15
2023-02-24T18:26:12.764Z,41.60
2023-02-24T18:28:41.347Z,80.78
2023-02-24T18:31:21.565Z,69.88
2023-02-24T18:33:50.490Z,68.70
2023-02-24T18:36:20.083Z,67.93
2023-02-24T18:38:48.813Z,40.30
2023-02-24T18:41:19.594Z,42.58
2023-02-24T18:43:49.345Z,57.22
2023-02-24T18:46:19.445Z,70.35
2023-02-24T18:48:50.630Z,81.45
2023-02-24T18:51:22.499Z,86.45
2023-02-24T18:53:52.891Z,80.90
2023-02-24T18:56:26.687Z,77.88
2023-02-24T18:58:58.100Z,79.10
2023-02-24T19:01:33.020Z,54.45
2023-02-24T19:04:02.017Z,39.83
2023-02-24T19:06:32.492Z,47.45
2023-02-24T19:09:07.934Z,45.38
2023-02-24T19:11:37.543Z,52.60
2023-02-24T19:14:06.810Z,53.15
2023-02-24T19:16:35.505Z,63.25
2023-02-24T19:19:04.592Z,39.70
2023-02-24T19:24:04.148Z,15.95
2023-02-24T19:26:32.675Z,17.85
2023-02-24T19:29:01.137Z,14.95
2023-02-24T19:31:31.820Z,14.77
2023-02-24T19:34:03.521Z,11.93
2023-02-24T19:36:33.223Z,14.40
2023-02-24T19:39:02.082Z,17.42
2023-02-24T19:41:30.781Z,24.83
2023-02-24T19:43:59.348Z,23.83
2023-02-24T19:46:29.198Z,31.95
2023-02-24T19:48:57.368Z,27.35
2023-02-24T19:51:26.436Z,21.30
2023-02-24T19:53:57.107Z,41.65
2023-02-24T19:56:33.922Z,40.70
2023-02-24T19:59:03.704Z,22.45
2023-02-24T20:01:32.268Z,13.85
2023-02-24T20:04:03.053Z,40.65
2023-02-24T20:06:36.147Z,52.80
2023-02-24T20:09:10.173Z,44.38
2023-02-24T20:11:39.926Z,46.38
2023-02-24T20:14:09.745Z,48.20
2023-02-24T20:16:42.829Z,63.47
2023-02-24T20:19:13.136Z,61.95
2023-02-24T20:21:42.618Z,61.70
2023-02-24T20:24:15.057Z,59.55
2023-02-24T20:26:47.489Z,41.33
2023-02-24T20:29:18.535Z,44.72
2023-02-24T20:31:47.782Z,43.60
2023-02-24T20:34:17.220Z,26.20
2023-02-24T20:36:45.964Z,23.13
2023-02-24T20:39:14.797Z,26.48
2023-02-24T20:41:44.171Z,29.13
2023-02-24T20:44:12.577Z,29.20
2023-02-24T20:46:41.007Z,21.85
2023-02-24T20:49:15.020Z,20.77
2023-02-24T20:51:43.953Z,23.48
2023-02-24T20:54:13.350Z,23.60
2023-02-24T20:56:44.576Z,28.23
2023-02-24T20:59:16.881Z,39.90
2023-02-24T21:01:47.947Z,45.05
2023-02-24T21:04:19.496Z,48.63
2023-02-24T21:06:48.879Z,42.05
2023-02-24T21:09:17.298Z,32.20
2023-02-24T21:11:45.692Z,32.80
2023-02-24T21:14:16.064Z,27.35
2023-02-24T21:16:46.489Z,20.83
2023-02-24T21:19:15.397Z,20.77
2023-02-24T21:21:43.493Z,15.68
2023-02-24T21:24:11.645Z,17.65
2023-02-24T21:26:39.877Z,22.67
2023-02-24T21:29:08.477Z,16.35
2023-02-24T21:31:36.738Z,28.10
2023-02-24T21:34:05.186Z,21.98
2023-02-24T21:36:33.167Z,19.98
2023-02-24T21:39:01.471Z,24.48
2023-02-24T21:41:29.621Z,26.98
2023-02-24T21:44:00.809Z,22.45
2023-02-24T21:46:29.337Z,29.30
2023-02-24T21:48:58.709Z,18.90
2023-02-24T21:51:28.093Z,23.52
2023-02-24T21:53:58.000Z,15.05
2023-02-24T21:56:28.881Z,24.67
2023-02-24T21:59:05.976Z,23.42
2023-02-24T22:01:36.963Z,26.77
2023-02-24T22:04:09.138Z,23.48
2023-02-24T22:06:39.341Z,30.90
2023-02-24T22:09:09.958Z,27.58
2023-02-24T22:11:41.225Z,30.58
2023-02-24T22:14:11.859Z,26.73
2023-02-24T22:16:40.988Z,23.05
2023-02-24T22:21:39.422Z,19.38
2023-02-24T22:24:07.603Z,20.88
2023-02-24T22:26:35.423Z,22.85
2023-02-24T22:29:03.709Z,22.08
2023-02-24T22:31:33.700Z,20.75
2023-02-24T22:34:01.738Z,23.42
2023-02-24T22:36:32.089Z,26.00
2023-02-24T22:39:01.953Z,29.45
2023-02-24T22:41:32.499Z,31.55
2023-02-24T22:44:01.942Z,14.75
2023-02-24T22:46:32.951Z,13.98
2023-02-24T22:49:01.199Z,20.27
2023-02-24T22:51:29.212Z,16.88
2023-02-24T22:53:57.306Z,14.00
2023-02-24T22:56:28.000Z,11.43
2023-02-24T22:58:56.390Z,17.58
2023-02-24T23:01:30.456Z,15.52
2023-02-24T23:04:03.948Z,13.60
2023-02-24T23:06:32.696Z,10.43
2023-02-24T23:09:01.178Z,10.88
2023-02-24T23:11:35.201Z,9.98
2023-02-24T23:14:06.225Z,13.02
2023-02-24T23:16:35.355Z,10.55
2023-02-24T23:19:06.461Z,11.50
2023-02-24T23:21:43.455Z,12.73
2023-02-24T23:24:14.064Z,11.75
2023-02-24T23:26:47.432Z,9.10
2023-02-24T23:29:17.743Z,10.13
2023-02-24T23:31:46.428Z,15.27
2023-02-24T23:34:15.202Z,8.30
2023-02-24T23:36:45.491Z,16.73
2023-02-24T23:39:16.268Z,13.30
2023-02-24T23:41:44.504Z,12.75
2023-02-24T23:44:12.979Z,12.15
2023-02-24T23:46:44.792Z,12.05
2023-02-24T23:49:12.822Z,10.18
2023-02-24T23:51:48.407Z,13.75
2023-02-24T23:54:18.472Z,19.98
2023-02-24T23:56:49.048Z,13.85
2023-02-24T23:59:17.156Z,12.93
